Time;durP1;ratioP1;P1;durP2;ratioP2;P2;SDS_P1;SDS_P2;PMS_P1;PMS_P2;Temp;Humidity;BMP_temperature;BMP_pressure;BME280_temperature;BME280_humidity;BME280_pressure;Samples;Min_cycle;Max_cycle;Signal;HPM_P1;HPM_P2
2021/10/03 00:04:34;;;;;;;9.00;6.90;;;;;;;11.54;66.81;100005.29;254125;1107;115935;-68
2021/10/03 00:09:38;;;;;;;18.15;9.25;;;;;;;11.55;66.80;100006.09;253429;1108;116463;-69
2021/10/03 00:14:42;;;;;;;10.95;7.58;;;;;;;11.55;66.89;100003.43;254618;1107;116319;-68
2021/10/03 00:19:45;;;;;;;16.58;9.75;;;;;;;11.52;67.05;100004.70;254707;1107;115934;-68
2021/10/03 00:24:49;;;;;;;9.28;7.40;;;;;;;11.50;66.90;99996.13;253193;1107;116169;-68
2021/10/03 00:29:53;;;;;;;7.63;6.45;;;;;;;11.48;67.09;99992.88;255177;1108;116226;-68
2021/10/03 00:34:58;;;;;;;12.08;6.60;;;;;;;11.50;66.96;99985.44;254261;1107;117409;-68
2021/10/03 00:40:02;;;;;;;14.48;8.50;;;;;;;11.56;66.86;99986.37;253613;1107;117288;-68
2021/10/03 00:45:08;;;;;;;11.25;8.60;;;;;;;11.62;67.03;99975.53;255334;1107;115832;-68
2021/10/03 00:50:13;;;;;;;10.70;8.15;;;;;;;11.63;67.15;99969.14;254364;1102;116237;-69
2021/10/03 00:55:20;;;;;;;9.78;8.23;;;;;;;11.64;67.28;99965.43;253853;1107;115733;-68
2021/10/03 01:00:28;;;;;;;11.65;7.90;;;;;;;11.59;67.08;99957.34;254008;1107;115841;-68
2021/10/03 01:05:33;;;;;;;11.70;8.38;;;;;;;11.54;67.42;99962.57;256427;1107;115753;-69
2021/10/03 01:10:37;;;;;;;12.48;7.25;;;;;;;11.55;67.35;99961.53;254047;1108;115595;-68
2021/10/03 01:15:45;;;;;;;17.10;8.05;;;;;;;11.54;66.97;99946.55;254521;1107;115274;-69
2021/10/03 01:20:50;;;;;;;12.68;8.78;;;;;;;11.50;67.31;99945.39;256041;1107;115331;-69
2021/10/03 01:25:54;;;;;;;12.58;8.88;;;;;;;11.47;67.24;99953.88;255610;1107;115354;-68
2021/10/03 01:30:58;;;;;;;16.85;8.93;;;;;;;11.40;67.64;99947.84;255446;1107;114855;-68
2021/10/03 01:36:01;;;;;;;20.50;9.03;;;;;;;11.37;67.25;99946.45;254396;1107;116561;-68
2021/10/03 01:41:06;;;;;;;15.37;10.40;;;;;;;11.36;67.50;99936.02;253690;1103;115616;-68
2021/10/03 01:46:10;;;;;;;14.75;9.30;;;;;;;11.31;67.61;99933.26;255263;1107;116433;-68
2021/10/03 01:51:21;;;;;;;16.75;10.08;;;;;;;11.21;67.61;99938.36;254172;1107;115770;-68
2021/10/03 01:56:28;;;;;;;15.45;9.73;;;;;;;11.08;67.82;99942.08;253584;1103;116113;-68
2021/10/03 02:01:35;;;;;;;11.85;9.98;;;;;;;11.03;67.82;99941.95;253705;1107;116228;-68
2021/10/03 02:06:45;;;;;;;13.47;9.97;;;;;;;10.98;68.25;99937.34;253385;1107;115568;-68
2021/10/03 02:11:50;;;;;;;21.20;13.70;;;;;;;10.97;68.19;99935.72;253565;1101;115444;-68
2021/10/03 02:16:57;;;;;;;15.70;10.28;;;;;;;10.90;68.27;99937.69;253544;1107;115424;-68
2021/10/03 02:22:01;;;;;;;22.50;12.47;;;;;;;10.84;68.72;99940.45;254533;1107;116925;-68
2021/10/03 02:27:03;;;;;;;15.70;10.20;;;;;;;10.78;68.58;99936.85;254522;1107;115785;-69
2021/10/03 02:32:07;;;;;;;17.00;10.88;;;;;;;10.75;68.47;99945.31;253551;1107;115833;-68
2021/10/03 02:37:10;;;;;;;35.73;15.93;;;;;;;10.76;68.60;99939.75;253829;1107;116089;-68
2021/10/03 02:42:14;;;;;;;20.90;12.53;;;;;;;10.78;68.95;99942.19;254954;1107;115813;-69
2021/10/03 02:47:18;;;;;;;19.38;14.15;;;;;;;10.75;68.69;99940.80;255291;1107;115605;-69
2021/10/03 02:52:21;;;;;;;17.08;12.63;;;;;;;10.74;68.93;99941.02;256037;1107;115685;-69
2021/10/03 02:57:25;;;;;;;18.95;12.08;;;;;;;10.76;68.85;99936.27;254414;1103;115647;-68
2021/10/03 03:02:28;;;;;;;18.43;12.30;;;;;;;10.79;68.73;99939.30;254654;1107;115174;-68
2021/10/03 03:07:32;;;;;;;23.80;15.65;;;;;;;10.79;68.85;99931.30;254818;1107;117432;-68
2021/10/03 03:12:37;;;;;;;22.73;14.73;;;;;;;10.77;69.18;99921.89;255664;1107;115657;-68
2021/10/03 03:17:41;;;;;;;20.88;13.50;;;;;;;10.70;68.69;99922.00;256511;1106;116958;-68
2021/10/03 03:22:45;;;;;;;19.15;12.03;;;;;;;10.60;68.99;99919.12;255902;1107;115635;-68
2021/10/03 03:27:49;;;;;;;26.43;13.50;;;;;;;10.59;68.79;99914.02;254336;1107;115665;-67
2021/10/03 03:32:52;;;;;;;19.45;13.50;;;;;;;10.56;69.16;99930.47;253603;1101;115081;-68
2021/10/03 03:37:55;;;;;;;25.80;15.05;;;;;;;10.50;69.00;99931.38;253419;1102;115833;-68
2021/10/03 03:42:59;;;;;;;24.10;15.85;;;;;;;10.38;69.41;99934.84;254786;1107;115406;-67
2021/10/03 03:48:03;;;;;;;19.68;14.53;;;;;;;10.22;69.38;99934.67;253752;1107;115656;-67
2021/10/03 03:53:07;;;;;;;22.20;14.05;;;;;;;10.12;69.43;99930.67;253915;1107;115981;-67
2021/10/03 03:58:11;;;;;;;21.67;14.67;;;;;;;10.07;69.75;99929.75;253921;1107;115658;-70
2021/10/03 04:03:14;;;;;;;25.70;16.53;;;;;;;10.01;70.09;99931.45;253336;1107;115467;-70
2021/10/03 04:08:19;;;;;;;25.70;18.78;;;;;;;9.97;69.67;99932.13;253507;1102;117826;-70
2021/10/03 04:13:24;;;;;;;21.93;16.35;;;;;;;9.94;70.03;99935.24;254766;1107;116240;-67
2021/10/03 04:18:28;;;;;;;22.58;16.00;;;;;;;9.84;70.14;99929.63;253572;1107;116850;-67
2021/10/03 04:23:32;;;;;;;26.40;16.63;;;;;;;9.73;70.31;99939.21;254483;1107;116578;-67
2021/10/03 04:28:34;;;;;;;24.37;16.73;;;;;;;9.65;70.88;99947.49;253916;1107;116402;-67
2021/10/03 04:33:41;;;;;;;25.50;19.18;;;;;;;9.60;71.14;99945.50;253512;1107;209149;-67
2021/10/03 04:38:46;;;;;;;22.63;15.63;;;;;;;9.52;71.18;99940.47;254763;1103;116831;-69
2021/10/03 04:43:50;;;;;;;24.95;17.85;;;;;;;9.49;71.89;99930.27;254928;1107;115983;-69
2021/10/03 04:48:55;;;;;;;24.88;14.73;;;;;;;9.50;71.09;99926.57;254253;1107;115418;-70
2021/10/03 04:53:59;;;;;;;29.35;18.83;;;;;;;9.53;71.45;99930.64;254278;1107;116369;-69
2021/10/03 04:59:02;;;;;;;32.75;19.48;;;;;;;9.53;71.72;99946.60;254899;1107;116015;-69
2021/10/03 05:04:06;;;;;;;28.08;18.05;;;;;;;9.52;71.35;99951.11;254908;1107;115964;-69
2021/10/03 05:09:09;;;;;;;33.33;19.00;;;;;;;9.53;72.43;99951.92;256174;1107;116237;-72
2021/10/03 05:14:12;;;;;;;25.33;17.83;;;;;;;9.60;71.64;99948.16;255026;1107;117248;-70
2021/10/03 05:19:15;;;;;;;23.00;16.83;;;;;;;9.70;72.22;99953.78;253642;1107;115698;-68
2021/10/03 05:24:19;;;;;;;27.10;18.20;;;;;;;9.74;72.14;99944.31;253718;1107;116505;-68
2021/10/03 05:29:23;;;;;;;34.23;20.15;;;;;;;9.83;72.26;99941.32;255276;1107;116341;-68
2021/10/03 05:34:26;;;;;;;26.95;19.53;;;;;;;9.93;72.42;99934.43;254632;1107;116311;-68
2021/10/03 05:39:29;;;;;;;27.30;18.73;;;;;;;10.04;72.58;99946.98;254280;1107;115858;-67
2021/10/03 05:44:32;;;;;;;27.85;19.73;;;;;;;10.13;72.39;99948.27;253490;1107;116206;-67
2021/10/03 05:49:35;;;;;;;21.93;15.28;;;;;;;10.17;72.48;99940.65;253680;1107;116293;-67
2021/10/03 05:54:38;;;;;;;30.30;18.13;;;;;;;10.26;71.90;99951.83;253232;1107;115595;-67
2021/10/03 05:59:41;;;;;;;25.08;18.48;;;;;;;10.41;72.34;99946.88;253740;1107;115950;-70
2021/10/03 06:04:44;;;;;;;27.05;19.03;;;;;;;10.51;72.63;99954.32;253751;1107;115703;-67
2021/10/03 06:09:46;;;;;;;26.65;17.68;;;;;;;10.63;72.16;99949.84;254354;1107;115723;-69
2021/10/03 06:14:50;;;;;;;27.10;18.43;;;;;;;10.69;72.17;99943.59;253196;1107;117066;-69
2021/10/03 06:19:52;;;;;;;35.85;21.18;;;;;;;10.80;71.79;99937.44;253653;1107;116145;-65
2021/10/03 06:24:55;;;;;;;38.13;19.08;;;;;;;10.95;72.51;99935.14;253526;1107;116190;-67
2021/10/03 06:29:58;;;;;;;25.75;17.93;;;;;;;11.13;72.36;99934.19;253536;1102;115802;-69
2021/10/03 06:35:03;;;;;;;26.20;16.90;;;;;;;11.35;72.42;99931.72;253492;1107;116442;-68
2021/10/03 06:40:07;;;;;;;29.53;17.10;;;;;;;11.78;72.56;99934.78;254394;1107;116324;-69
2021/10/03 06:45:10;;;;;;;28.95;14.63;;;;;;;12.13;71.82;99941.84;254403;1107;116361;-70
2021/10/03 06:50:13;;;;;;;27.25;17.55;;;;;;;12.44;72.00;99935.98;254500;1107;115605;-70
2021/10/03 06:55:17;;;;;;;21.68;16.90;;;;;;;12.88;71.83;99938.80;254423;1107;116032;-70
2021/10/03 07:00:20;;;;;;;18.73;13.65;;;;;;;13.25;71.08;99938.30;254228;1107;115344;-70
2021/10/03 07:05:24;;;;;;;19.53;12.23;;;;;;;13.69;70.78;99939.14;256308;1107;115376;-69
2021/10/03 07:10:28;;;;;;;19.23;13.08;;;;;;;14.10;70.42;99938.50;256220;1107;116372;-70
2021/10/03 07:15:32;;;;;;;20.15;12.90;;;;;;;14.38;69.90;99941.98;256263;1107;116013;-69
2021/10/03 07:20:35;;;;;;;15.28;11.58;;;;;;;14.62;69.44;99932.59;254765;1108;116307;-69
2021/10/03 07:25:38;;;;;;;19.70;12.68;;;;;;;14.72;68.62;99929.97;255100;1107;115675;-68
2021/10/03 07:30:41;;;;;;;20.43;13.50;;;;;;;14.87;68.18;99931.96;253746;1106;115353;-68
2021/10/03 07:35:43;;;;;;;15.53;12.40;;;;;;;15.01;68.05;99930.43;253352;1101;115700;-70
2021/10/03 07:40:47;;;;;;;16.20;11.98;;;;;;;15.09;67.58;99924.58;253182;1107;115346;-71
2021/10/03 07:45:49;;;;;;;19.33;11.68;;;;;;;15.22;67.18;99925.20;253271;1107;115832;-70
2021/10/03 07:50:52;;;;;;;17.48;12.30;;;;;;;15.37;67.07;99933.32;253453;1107;115370;-71
2021/10/03 07:55:56;;;;;;;14.60;9.85;;;;;;;15.53;66.67;99921.59;253150;1107;115338;-71
2021/10/03 08:00:59;;;;;;;16.50;10.55;;;;;;;15.78;66.22;99920.89;253234;1102;115836;-71
2021/10/03 08:06:03;;;;;;;15.73;11.30;;;;;;;16.01;65.93;99923.10;253403;1107;115976;-71
2021/10/03 08:11:07;;;;;;;13.55;9.10;;;;;;;16.24;65.43;99913.72;253285;1102;116002;-71
2021/10/03 08:16:12;;;;;;;11.08;8.85;;;;;;;16.51;65.51;99903.50;253319;1103;116168;-70
2021/10/03 08:21:16;;;;;;;13.48;10.58;;;;;;;16.81;65.51;99910.00;253704;1107;115038;-70
2021/10/03 08:26:19;;;;;;;8.75;7.93;;;;;;;17.10;65.32;99913.72;253212;1107;115498;-70
2021/10/03 08:31:22;;;;;;;10.73;8.43;;;;;;;17.34;64.64;99916.60;253389;1107;203461;-70
2021/10/03 08:36:26;;;;;;;9.78;8.58;;;;;;;17.42;63.86;99909.84;253821;1102;114775;-69
2021/10/03 08:41:31;;;;;;;12.90;8.35;;;;;;;17.75;63.65;99906.47;254011;1107;115302;-70
2021/10/03 08:46:35;;;;;;;10.83;7.97;;;;;;;18.04;63.11;99908.45;253961;1107;116122;-70
2021/10/03 08:51:39;;;;;;;11.60;7.15;;;;;;;18.22;61.45;99902.41;255093;1107;115483;-69
2021/10/03 08:56:43;;;;;;;12.30;7.70;;;;;;;18.18;60.40;99895.97;254289;1107;115704;-68
2021/10/03 09:01:54;;;;;;;9.60;7.58;;;;;;;18.28;59.68;99898.59;254817;1107;115208;-68
2021/10/03 09:07:18;;;;;;;11.78;7.58;;;;;;;18.69;59.83;99892.88;255102;1107;115215;-69
2021/10/03 09:12:29;;;;;;;7.35;5.63;;;;;;;19.21;58.51;99891.28;256156;1107;115505;-70
2021/10/03 09:17:33;;;;;;;6.18;5.58;;;;;;;19.44;57.97;99893.16;255732;1103;115482;-69
2021/10/03 09:23:11;;;;;;;8.75;6.58;;;;;;;19.58;57.73;99888.66;253231;1107;115093;-69
2021/10/03 09:28:24;;;;;;;8.35;5.53;;;;;;;19.83;56.85;99876.72;254189;1107;115552;-69
2021/10/03 09:33:49;;;;;;;5.93;5.43;;;;;;;20.12;56.48;99873.86;256216;1107;114641;-70
2021/10/03 09:39:01;;;;;;;9.73;6.47;;;;;;;20.18;55.04;99872.66;255940;1103;115443;-69
2021/10/03 09:44:15;;;;;;;10.80;5.87;;;;;;;20.23;55.02;99869.06;253514;1107;115693;-70
2021/10/03 09:49:29;;;;;;;8.73;6.03;;;;;;;20.39;54.70;99863.16;253932;1107;115326;-69
2021/10/03 09:54:35;;;;;;;6.43;5.80;;;;;;;20.55;54.65;99854.75;253228;1103;115474;-68
2021/10/03 09:59:40;;;;;;;7.78;7.08;;;;;;;20.75;54.29;99854.41;253331;1102;114759;-68
2021/10/03 10:04:44;;;;;;;9.55;6.75;;;;;;;20.90;53.54;99840.56;253231;1102;115295;-68
2021/10/03 10:09:49;;;;;;;11.68;6.93;;;;;;;21.07;53.31;99824.52;253351;1107;116140;-69
2021/10/03 10:15:04;;;;;;;7.78;6.55;;;;;;;21.08;52.72;99820.70;253766;1107;115964;-69
2021/10/03 10:20:17;;;;;;;8.38;5.85;;;;;;;21.21;52.27;99818.30;254581;1107;117751;-70
2021/10/03 10:25:39;;;;;;;6.68;5.90;;;;;;;21.39;52.39;99820.10;253511;1107;115777;-70
2021/10/03 10:31:12;;;;;;;9.88;6.30;;;;;;;21.46;51.97;99810.42;253347;1107;116260;-71
2021/10/03 10:36:28;;;;;;;7.03;6.33;;;;;;;21.50;51.38;99816.05;252982;1106;115985;-69
2021/10/03 10:41:37;;;;;;;7.33;6.33;;;;;;;21.59;51.16;99808.80;253421;1107;116235;-71
2021/10/03 10:46:50;;;;;;;6.65;5.83;;;;;;;21.84;51.08;99805.49;254640;1107;115915;-70
2021/10/03 10:52:19;;;;;;;7.63;6.05;;;;;;;21.97;50.31;99789.47;253839;1107;115352;-70
2021/10/03 10:57:22;;;;;;;6.85;6.13;;;;;;;21.95;49.74;99792.49;253287;1101;116383;-71
2021/10/03 11:02:52;;;;;;;7.93;5.95;;;;;;;21.80;49.84;99795.55;253340;1107;115265;-72
2021/10/03 11:08:21;;;;;;;6.80;6.13;;;;;;;21.82;49.56;99787.91;253413;1107;115187;-71
2021/10/03 11:13:46;;;;;;;16.43;6.70;;;;;;;21.94;49.63;99784.66;254124;1107;114748;-72
2021/10/03 11:18:59;;;;;;;10.55;7.13;;;;;;;22.05;49.57;99783.31;254527;1107;115588;-72
2021/10/03 11:24:09;;;;;;;7.98;5.90;;;;;;;22.14;49.18;99781.45;255572;1107;115696;-71
2021/10/03 11:29:13;;;;;;;6.63;5.78;;;;;;;22.17;48.98;99778.93;256080;1107;115690;-71
2021/10/03 11:34:35;;;;;;;15.00;5.63;;;;;;;22.23;48.44;99765.23;253792;1107;116656;-71
2021/10/03 11:40:01;;;;;;;15.43;5.73;;;;;;;22.26;48.32;99770.84;254472;1107;114905;-70
2021/10/03 11:45:13;;;;;;;5.88;5.30;;;;;;;22.17;47.63;99762.64;253704;1107;116186;-71
2021/10/03 11:50:24;;;;;;;6.07;4.83;;;;;;;22.11;47.90;99754.92;253033;1107;115759;-70
2021/10/03 11:55:36;;;;;;;7.90;5.90;;;;;;;22.15;48.17;99756.72;254268;1107;117895;-70
2021/10/03 12:01:01;;;;;;;8.97;5.70;;;;;;;22.22;47.82;99750.05;253720;1107;116291;-70
2021/10/03 12:06:30;;;;;;;6.60;5.93;;;;;;;22.29;47.82;99753.93;254446;1107;115123;-70
2021/10/03 12:11:49;;;;;;;5.75;5.23;;;;;;;22.34;47.47;99742.11;254509;1106;115424;-70
2021/10/03 12:16:56;;;;;;;5.83;5.37;;;;;;;22.15;47.66;99745.86;252973;1107;116266;-70
2021/10/03 12:22:08;;;;;;;10.83;6.65;;;;;;;22.16;48.04;99746.66;253014;1107;115946;-73
2021/10/03 12:27:23;;;;;;;7.03;6.40;;;;;;;22.23;47.96;99736.16;253833;1107;116171;-71
2021/10/03 12:32:26;;;;;;;6.85;5.83;;;;;;;22.28;47.94;99730.60;253914;1107;115680;-72
2021/10/03 12:37:32;;;;;;;7.95;6.85;;;;;;;22.29;47.83;99731.41;253329;1102;115481;-72
2021/10/03 12:42:40;;;;;;;8.05;5.90;;;;;;;22.33;47.78;99725.01;253673;1107;115457;-72
2021/10/03 12:47:44;;;;;;;7.80;6.20;;;;;;;22.33;47.48;99721.49;253375;1107;115621;-70
2021/10/03 12:52:48;;;;;;;9.15;5.83;;;;;;;22.17;47.59;99715.68;253800;1107;116234;-71
2021/10/03 12:57:53;;;;;;;9.08;6.53;;;;;;;22.15;47.75;99720.63;253366;1107;115640;-70
2021/10/03 13:02:56;;;;;;;7.88;5.85;;;;;;;22.17;47.45;99715.68;254528;1107;115518;-69
2021/10/03 13:07:59;;;;;;;8.93;5.33;;;;;;;22.09;47.87;99711.00;253380;1106;116006;-71
2021/10/03 13:13:04;;;;;;;8.63;7.23;;;;;;;21.88;47.90;99718.84;256386;1107;115456;-72
2021/10/03 13:18:07;;;;;;;7.20;6.60;;;;;;;21.69;47.53;99713.63;254822;1107;116428;-72
2021/10/03 13:23:11;;;;;;;7.50;6.63;;;;;;;21.46;47.87;99701.94;253508;1107;117168;-71
2021/10/03 13:28:15;;;;;;;7.83;7.13;;;;;;;21.35;48.35;99716.87;255053;1107;117574;-68
2021/10/03 13:33:19;;;;;;;10.50;6.33;;;;;;;21.30;48.23;99716.98;256199;1107;115806;-70
2021/10/03 13:38:24;;;;;;;7.05;6.45;;;;;;;21.27;48.31;99711.36;255750;1107;116272;-70
2021/10/03 13:43:29;;;;;;;6.10;5.20;;;;;;;21.19;48.35;99713.66;253327;1107;115967;-70
2021/10/03 13:48:36;;;;;;;7.78;7.08;;;;;;;21.15;48.65;99714.56;254706;1107;115783;-70
2021/10/03 13:53:40;;;;;;;7.17;6.53;;;;;;;21.10;48.84;99704.63;254401;1107;116155;-70
2021/10/03 13:58:46;;;;;;;;;;;;;;;21.14;48.87;99705.63;253398;1107;116005;-71
2021/10/03 14:03:50;;;;;;;11.90;6.30;;;;;;;21.18;49.00;99705.83;255779;1107;102239;-70
2021/10/03 14:08:54;;;;;;;5.50;5.00;;;;;;;21.14;48.90;99697.50;254043;1107;115610;-71
2021/10/03 14:13:59;;;;;;;6.45;5.85;;;;;;;20.96;48.88;99701.16;253098;1107;114770;-69
2021/10/03 14:19:04;;;;;;;7.35;6.63;;;;;;;20.80;49.50;99694.45;253096;1107;115612;-73
2021/10/03 14:24:08;;;;;;;8.45;6.18;;;;;;;20.66;49.82;99694.48;254200;1107;116106;-71
2021/10/03 14:29:13;;;;;;;7.88;6.15;;;;;;;20.46;49.59;99698.41;253226;1107;116046;-70
2021/10/03 14:34:17;;;;;;;6.30;5.68;;;;;;;20.37;50.12;99696.66;253500;1107;117665;-70
2021/10/03 14:39:21;;;;;;;5.38;4.83;;;;;;;20.26;50.09;99695.24;253616;1106;116147;-70
2021/10/03 14:44:25;;;;;;;6.80;5.53;;;;;;;20.18;50.68;99691.31;253269;1107;115053;-69
2021/10/03 14:49:29;;;;;;;7.88;7.08;;;;;;;20.05;50.85;99698.33;253286;1102;115589;-71
2021/10/03 14:54:32;;;;;;;9.73;6.48;;;;;;;19.93;50.66;99694.48;253266;1107;115515;-71
2021/10/03 14:59:36;;;;;;;7.18;6.48;;;;;;;19.83;50.78;99698.99;253243;1107;115195;-70
2021/10/03 15:04:41;;;;;;;7.20;6.03;;;;;;;19.70;51.30;99699.74;254154;1107;115377;-70
2021/10/03 15:09:46;;;;;;;6.45;5.85;;;;;;;19.46;51.69;99699.83;254163;1107;193765;-70
2021/10/03 15:14:53;;;;;;;10.30;6.88;;;;;;;19.24;52.03;99702.33;253864;1107;115281;-70
2021/10/03 15:19:57;;;;;;;9.03;6.38;;;;;;;19.08;52.66;99709.84;253408;1107;115770;-70
2021/10/03 15:25:01;;;;;;;8.35;6.73;;;;;;;18.86;52.29;99712.30;253949;1107;115118;-71
2021/10/03 15:30:06;;;;;;;11.60;6.85;;;;;;;18.66;53.02;99707.13;254031;1107;114788;-72
2021/10/03 15:35:13;;;;;;;8.28;6.55;;;;;;;18.50;53.47;99710.00;255178;1107;115594;-71
2021/10/03 15:40:19;;;;;;;7.25;6.03;;;;;;;18.31;53.90;99705.64;254145;1107;115314;-73
2021/10/03 15:45:24;;;;;;;8.60;6.53;;;;;;;18.13;53.97;99715.25;255555;1107;115758;-73
2021/10/03 15:50:27;;;;;;;7.78;6.25;;;;;;;17.99;54.54;99714.32;254304;1107;114970;-70
2021/10/03 15:55:40;;;;;;;7.47;6.67;;;;;;;17.86;54.61;99723.05;255379;1107;115245;-69
2021/10/03 16:00:45;;;;;;;8.98;6.45;;;;;;;17.69;54.98;99726.97;253358;1103;115758;-69
2021/10/03 16:05:48;;;;;;;9.00;7.73;;;;;;;17.55;55.27;99730.55;254265;1107;115782;-69
2021/10/03 16:10:52;;;;;;;9.83;7.23;;;;;;;17.40;55.44;99734.16;253194;1107;115119;-69
2021/10/03 16:15:57;;;;;;;13.60;8.03;;;;;;;17.26;55.84;99738.55;253251;1107;116267;-72
2021/10/03 16:21:02;;;;;;;;;;;;;;;17.09;56.20;99747.80;253558;1107;115142;-71
2021/10/03 16:26:06;;;;;;;10.90;8.00;;;;;;;16.90;56.63;99746.80;254673;1107;103104;-70
2021/10/03 16:31:11;;;;;;;16.60;8.20;;;;;;;16.74;56.95;99745.27;253420;1107;115413;-70
2021/10/03 16:36:24;;;;;;;11.35;9.00;;;;;;;16.58;57.50;99755.23;253314;1107;115886;-69
2021/10/03 16:41:28;;;;;;;9.25;8.28;;;;;;;16.41;57.60;99752.05;254932;1107;115245;-69
2021/10/03 16:46:32;;;;;;;9.97;8.60;;;;;;;16.27;57.96;99751.80;253756;1107;116275;-69
2021/10/03 16:51:35;;;;;;;10.10;8.77;;;;;;;16.15;58.69;99762.05;253373;1107;115428;-70
2021/10/03 16:56:41;;;;;;;9.28;8.45;;;;;;;15.99;58.64;99761.23;253426;1107;117361;-68
2021/10/03 17:01:45;;;;;;;13.38;9.68;;;;;;;15.82;58.92;99772.27;253627;1107;115782;-69
2021/10/03 17:06:49;;;;;;;9.30;8.35;;;;;;;15.67;59.29;99774.94;254795;1107;114905;-68
2021/10/03 17:11:56;;;;;;;12.25;9.70;;;;;;;15.62;59.65;99769.55;254358;1107;116448;-69
2021/10/03 17:17:00;;;;;;;9.60;7.83;;;;;;;15.58;59.89;99767.69;253153;1103;115919;-73
2021/10/03 17:22:04;;;;;;;11.13;8.90;;;;;;;15.53;60.39;99760.39;254196;1107;115509;-70
2021/10/03 17:27:07;;;;;;;15.40;8.88;;;;;;;15.51;60.55;99757.16;255018;1107;115978;-69
2021/10/03 17:32:11;;;;;;;12.40;8.50;;;;;;;15.48;60.72;99752.31;256274;1107;116389;-69
2021/10/03 17:37:16;;;;;;;9.50;7.68;;;;;;;15.41;60.39;99757.13;256352;1107;117167;-70
2021/10/03 17:42:19;;;;;;;9.93;8.03;;;;;;;15.35;60.75;99755.50;256349;1108;116621;-69
2021/10/03 17:47:23;;;;;;;8.63;7.73;;;;;;;15.25;60.73;99752.81;254790;1107;117669;-69
2021/10/03 17:52:27;;;;;;;10.28;7.78;;;;;;;15.18;60.94;99749.56;255186;1107;117513;-69
2021/10/03 17:57:31;;;;;;;10.13;7.55;;;;;;;15.10;61.47;99743.63;253118;1107;116211;-69
2021/10/03 18:02:34;;;;;;;10.23;8.40;;;;;;;15.07;61.33;99744.16;253570;1103;115898;-69
2021/10/03 18:07:41;;;;;;;10.75;8.70;;;;;;;15.07;61.58;99744.16;253676;1102;115606;-68
2021/10/03 18:12:45;;;;;;;16.00;9.73;;;;;;;15.04;61.96;99741.99;254010;1102;115681;-69
2021/10/03 18:17:49;;;;;;;10.43;7.83;;;;;;;15.00;62.21;99745.46;256034;1107;115588;-69
2021/10/03 18:22:53;;;;;;;19.30;9.20;;;;;;;14.94;62.09;99747.34;253573;1107;115631;-68
2021/10/03 18:27:57;;;;;;;11.95;7.85;;;;;;;14.87;62.31;99749.45;254790;1107;116218;-69
2021/10/03 18:33:01;;;;;;;8.30;7.08;;;;;;;14.79;62.59;99761.50;253917;1103;115870;-68
2021/10/03 18:38:05;;;;;;;9.03;7.48;;;;;;;14.71;62.77;99756.62;253823;1107;116069;-68
2021/10/03 18:43:09;;;;;;;15.10;9.10;;;;;;;14.66;62.74;99766.55;254134;1108;115696;-68
2021/10/03 18:48:14;;;;;;;8.75;7.15;;;;;;;14.64;63.01;99768.67;253868;1108;116548;-70
2021/10/03 18:53:17;;;;;;;14.53;9.40;;;;;;;14.61;63.32;99771.88;253064;1107;115605;-70
2021/10/03 18:58:20;;;;;;;14.60;8.73;;;;;;;14.55;63.52;99773.72;253254;1106;116678;-70
2021/10/03 19:03:24;;;;;;;10.28;9.15;;;;;;;14.49;63.65;99770.19;253163;1107;116052;-70
2021/10/03 19:08:27;;;;;;;8.98;7.73;;;;;;;14.47;63.94;99783.05;253552;1102;116260;-67
2021/10/03 19:13:40;;;;;;;13.38;9.15;;;;;;;14.38;63.70;99781.08;254752;1107;115663;-68
2021/10/03 19:18:45;;;;;;;13.75;9.20;;;;;;;14.32;64.14;99784.81;253719;1107;116082;-69
2021/10/03 19:23:49;;;;;;;21.43;8.28;;;;;;;14.25;64.37;99776.17;253566;1103;116051;-69
2021/10/03 19:28:53;;;;;;;9.45;8.35;;;;;;;14.23;64.40;99784.48;254615;1107;116379;-69
2021/10/03 19:33:56;;;;;;;10.25;7.93;;;;;;;14.18;64.71;99768.34;253316;1107;115628;-69
2021/10/03 19:39:00;;;;;;;15.40;10.00;;;;;;;14.18;64.84;99775.58;253152;1107;116331;-69
2021/10/03 19:44:05;;;;;;;13.37;9.17;;;;;;;14.11;64.59;99771.24;256136;1107;116011;-69
2021/10/03 19:49:08;;;;;;;9.90;7.18;;;;;;;14.06;64.68;99767.74;255500;1107;115378;-69
2021/10/03 19:54:12;;;;;;;10.03;7.90;;;;;;;14.03;64.80;99773.61;255204;1103;114887;-68
2021/10/03 19:59:16;;;;;;;13.63;9.93;;;;;;;14.00;65.11;99774.12;255624;1107;115313;-68
2021/10/03 20:04:21;;;;;;;10.60;8.75;;;;;;;13.96;65.32;99773.81;254101;1100;116209;-68
2021/10/03 20:09:24;;;;;;;12.68;9.70;;;;;;;13.91;65.20;99771.09;255013;1107;116108;-68
2021/10/03 20:14:27;;;;;;;14.30;8.83;;;;;;;13.84;65.25;99781.20;254050;1102;117463;-67
2021/10/03 20:19:32;;;;;;;12.60;9.73;;;;;;;13.73;65.44;99783.01;253700;1107;116257;-68
2021/10/03 20:24:36;;;;;;;13.33;7.73;;;;;;;13.62;65.27;99777.80;253797;1102;116430;-68
2021/10/03 20:29:40;;;;;;;9.83;8.40;;;;;;;13.56;66.42;99779.61;254184;1107;116122;-68
2021/10/03 20:34:43;;;;;;;11.43;9.63;;;;;;;13.49;65.79;99784.36;254659;1107;114709;-68
2021/10/03 20:39:47;;;;;;;11.30;9.70;;;;;;;13.43;66.35;99785.39;254469;1107;115292;-69
2021/10/03 20:44:52;;;;;;;13.00;9.10;;;;;;;13.39;66.49;99789.63;254010;1107;115022;-69
2021/10/03 20:49:56;;;;;;;14.55;9.13;;;;;;;13.34;66.49;99778.86;253799;1101;115327;-68
2021/10/03 20:55:00;;;;;;;8.70;7.55;;;;;;;13.27;66.54;99778.23;254801;1102;115146;-68
2021/10/03 21:00:07;;;;;;;13.83;10.03;;;;;;;13.24;66.30;99784.09;253517;1107;117550;-68
2021/10/03 21:05:15;;;;;;;12.35;8.70;;;;;;;13.18;66.77;99785.89;253324;1107;116154;-68
2021/10/03 21:10:18;;;;;;;10.23;9.25;;;;;;;13.09;67.09;99780.16;255461;1107;117193;-69
2021/10/03 21:15:22;;;;;;;13.07;9.77;;;;;;;13.00;67.02;99778.17;254380;1107;115762;-69
2021/10/03 21:20:27;;;;;;;12.05;9.25;;;;;;;12.92;66.88;99781.27;253966;1103;115463;-69
2021/10/03 21:25:31;;;;;;;13.23;9.78;;;;;;;12.91;66.94;99785.00;255343;1107;116743;-68
2021/10/03 21:30:36;;;;;;;12.07;9.50;;;;;;;12.84;67.25;99779.83;254168;1107;116280;-68
2021/10/03 21:35:39;;;;;;;11.80;8.35;;;;;;;12.75;67.63;99782.14;253980;1107;115906;-68
2021/10/03 21:40:43;;;;;;;16.75;9.38;;;;;;;12.64;67.35;99785.73;253434;1107;115348;-68
2021/10/03 21:45:47;;;;;;;9.85;8.83;;;;;;;12.61;67.74;99783.55;256170;1107;115823;-68
2021/10/03 21:50:50;;;;;;;18.40;10.03;;;;;;;12.62;68.05;99781.69;256173;1107;115345;-68
2021/10/03 21:55:56;;;;;;;15.35;9.03;;;;;;;12.58;67.94;99788.58;254871;1107;116020;-67
2021/10/03 22:01:04;;;;;;;17.63;9.18;;;;;;;12.53;67.91;99792.02;254850;1107;115374;-67
2021/10/03 22:06:12;;;;;;;11.40;8.37;;;;;;;12.45;68.16;99785.21;254935;1108;115391;-67
2021/10/03 22:11:18;;;;;;;10.25;9.13;;;;;;;12.45;68.45;99787.08;254683;1107;115100;-68
2021/10/03 22:16:22;;;;;;;16.00;11.98;;;;;;;12.45;68.41;99785.21;255789;1107;115454;-68
2021/10/03 22:21:26;;;;;;;12.33;9.35;;;;;;;12.43;68.65;99784.64;254301;1107;116392;-68
2021/10/03 22:26:30;;;;;;;13.23;8.68;;;;;;;12.41;68.80;99784.08;254333;1107;114897;-68
2021/10/03 22:31:34;;;;;;;10.10;8.90;;;;;;;12.33;68.60;99789.84;253758;1107;115346;-68
2021/10/03 22:36:37;;;;;;;13.43;8.47;;;;;;;12.30;68.97;99773.47;253685;1107;194369;-68
2021/10/03 22:41:41;;;;;;;10.78;8.83;;;;;;;12.31;68.84;99773.23;254015;1107;115978;-68
2021/10/03 22:46:45;;;;;;;11.63;8.00;;;;;;;12.31;69.14;99778.58;253546;1107;115146;-67
2021/10/03 22:51:48;;;;;;;17.43;9.10;;;;;;;12.27;69.19;99771.28;253537;1107;115552;-68
2021/10/03 22:56:51;;;;;;;15.68;8.55;;;;;;;12.22;69.08;99768.56;254223;1107;115796;-70
2021/10/03 23:01:54;;;;;;;16.63;9.75;;;;;;;12.22;69.27;99771.23;253258;1107;116032;-67
2021/10/03 23:06:57;;;;;;;12.48;9.65;;;;;;;12.21;69.35;99778.44;253500;1103;115968;-68
2021/10/03 23:12:03;;;;;;;18.73;10.05;;;;;;;12.20;69.52;99776.83;254483;1107;115929;-67